Time;durP1;ratioP1;P1;durP2;ratioP2;P2;SDS_P1;SDS_P2;PMS_P1;PMS_P2;Temp;Humidity;BMP_temperature;BMP_pressure;BME280_temperature;BME280_humidity;BME280_pressure;Samples;Min_cycle;Max_cycle;Signal;HPM_P1;HPM_P2
2021/08/17 00:01:23;;;;;;;1999.90;999.90;;;;;;;8.78;51.08;100603.75;5066283;27;98170;-74
2021/08/17 00:03:51;;;;;;;1999.90;999.90;;;;;;;8.74;51.17;100564.72;5067585;27;97064;-75
2021/08/17 00:06:18;;;;;;;1999.90;999.90;;;;;;;8.75;51.00;100563.91;5066493;27;97525;-74
2021/08/17 00:08:46;;;;;;;1999.90;999.90;;;;;;;8.77;50.84;100578.09;5066694;27;98674;-75
2021/08/17 00:11:14;;;;;;;1999.90;999.90;;;;;;;8.75;51.15;100582.47;5066772;27;98412;-74
2021/08/17 00:13:42;;;;;;;1999.90;999.90;;;;;;;8.74;50.80;100581.56;5068490;27;97665;-73
2021/08/17 00:16:10;;;;;;;1999.90;999.90;;;;;;;8.76;50.83;100592.19;5069787;27;96926;-74
2021/08/17 00:18:39;;;;;;;1999.90;999.90;;;;;;;8.77;50.65;100580.75;5068590;27;99025;-74
2021/08/17 00:21:07;;;;;;;1999.90;999.90;;;;;;;8.74;50.73;100583.31;5068353;27;97554;-74
2021/08/17 00:23:35;;;;;;;1999.90;999.90;;;;;;;8.73;50.95;100581.53;5067318;27;96878;-74
2021/08/17 00:26:03;;;;;;;1999.90;999.90;;;;;;;8.72;50.79;100572.66;5067372;27;97985;-74
2021/08/17 00:28:30;;;;;;;1999.90;999.90;;;;;;;8.72;51.05;100590.31;5067252;27;100361;-74
2021/08/17 00:30:58;;;;;;;1999.90;999.90;;;;;;;8.70;51.07;100587.63;5066576;27;96967;-74
2021/08/17 00:33:26;;;;;;;1999.90;999.90;;;;;;;8.68;51.21;100613.22;5068351;27;96865;-74
2021/08/17 00:35:55;;;;;;;1999.90;999.90;;;;;;;8.63;51.24;100613.97;5068498;27;97957;-74
2021/08/17 00:38:24;;;;;;;1999.90;999.90;;;;;;;8.59;51.39;100606.78;5065888;27;99742;-74
2021/08/17 00:40:53;;;;;;;1999.90;999.90;;;;;;;8.57;51.51;100605.88;5067917;27;97599;-74
2021/08/17 00:43:21;;;;;;;1999.90;999.90;;;;;;;8.55;51.34;100589.88;5066912;27;98340;-74
2021/08/17 00:45:48;;;;;;;1999.90;999.90;;;;;;;8.52;51.52;100592.47;5067416;27;97079;-74
2021/08/17 00:48:16;;;;;;;1999.90;999.90;;;;;;;8.50;51.38;100583.56;5066186;27;99303;-74
2021/08/17 00:50:45;;;;;;;1999.90;999.90;;;;;;;8.51;51.47;100589.78;5067404;27;100292;-74
2021/08/17 00:53:14;;;;;;;1999.90;999.90;;;;;;;8.48;51.58;100584.38;5048760;27;98968;-73
2021/08/17 00:55:43;;;;;;;1999.90;999.90;;;;;;;8.49;51.54;100570.28;5068594;27;97721;-74
2021/08/17 00:58:10;;;;;;;1999.90;999.90;;;;;;;8.50;51.54;100572.06;5066456;27;97703;-74
2021/08/17 01:00:38;;;;;;;1999.90;999.90;;;;;;;8.49;51.68;100557.03;5065451;27;99280;-74
2021/08/17 01:03:06;;;;;;;1999.90;999.90;;;;;;;8.47;51.82;100579.91;5067622;27;97143;-74
2021/08/17 01:05:34;;;;;;;1999.90;999.90;;;;;;;8.47;51.60;100578.19;5057726;27;97478;-74
2021/08/17 01:08:02;;;;;;;1999.90;999.90;;;;;;;8.47;51.80;100564.00;5063703;27;97612;-74
2021/08/17 01:10:31;;;;;;;1999.90;999.90;;;;;;;8.47;52.15;100564.00;5065521;27;100314;-74
2021/08/17 01:12:59;;;;;;;1999.90;999.90;;;;;;;8.46;51.87;100581.66;5065795;27;96859;-74
2021/08/17 01:15:27;;;;;;;1999.90;999.90;;;;;;;8.44;52.37;100582.50;5062803;27;98526;-75
2021/08/17 01:17:54;;;;;;;1999.90;999.90;;;;;;;8.43;52.02;100580.69;5063975;27;100685;-74
2021/08/17 01:20:23;;;;;;;1999.90;999.90;;;;;;;8.40;52.03;100584.16;5064916;27;99402;-74
2021/08/17 01:22:51;;;;;;;1999.90;999.90;;;;;;;8.39;52.33;100582.34;5066463;27;96943;-74
2021/08/17 01:25:19;;;;;;;1999.90;999.90;;;;;;;8.42;52.03;100592.16;5064953;27;97439;-74
2021/08/17 01:27:48;;;;;;;1999.90;999.90;;;;;;;8.41;52.03;100578.00;5060588;27;100565;-75
2021/08/17 01:30:17;;;;;;;1999.90;999.90;;;;;;;8.46;52.17;100594.03;5064776;27;99396;-74
2021/08/17 01:32:46;;;;;;;1999.90;999.90;;;;;;;8.48;52.07;100592.34;5067345;27;97359;-74
2021/08/17 01:35:14;;;;;;;1999.90;999.90;;;;;;;8.47;52.10;100595.81;5060591;27;96984;-74
2021/08/17 01:37:42;;;;;;;1999.90;999.90;;;;;;;8.47;52.59;100599.41;5062960;27;99350;-74
2021/08/17 01:40:11;;;;;;;1999.90;999.90;;;;;;;8.79;52.26;100603.78;5067895;27;97641;-73
2021/08/17 01:42:42;;;;;;;1999.90;999.90;;;;;;;8.96;52.53;100602.47;5065933;27;97018;-74
2021/08/17 01:45:13;;;;;;;1999.90;999.90;;;;;;;8.79;52.85;100602.88;5069876;27;97331;-75
2021/08/17 01:47:40;;;;;;;1999.90;999.90;;;;;;;8.74;52.93;100591.25;5068953;27;100840;-75
2021/08/17 01:50:09;;;;;;;1999.90;999.90;;;;;;;8.71;52.92;100625.69;5070584;27;97781;-74
2021/08/17 01:52:37;;;;;;;1999.90;999.90;;;;;;;9.02;52.41;100604.38;5070114;27;96942;-74
2021/08/17 01:55:07;;;;;;;1999.90;999.90;;;;;;;8.85;53.04;100608.34;5069930;27;96914;-73
2021/08/17 01:57:35;;;;;;;1999.90;999.90;;;;;;;8.82;52.97;100634.81;5070089;27;97656;-74
2021/08/17 02:00:04;;;;;;;1999.90;999.90;;;;;;;8.81;53.14;100617.09;5070125;27;98614;-74
2021/08/17 02:02:33;;;;;;;1999.90;999.90;;;;;;;8.78;53.17;100632.94;5066035;27;97861;-74
2021/08/17 02:05:01;;;;;;;1999.90;999.90;;;;;;;8.72;53.48;100638.06;5069836;27;97162;-75
2021/08/17 02:07:29;;;;;;;1999.90;999.90;;;;;;;8.67;53.31;100621.16;5066682;27;99081;-74
2021/08/17 02:09:56;;;;;;;1999.90;999.90;;;;;;;8.60;53.66;100620.09;5068825;27;99045;-74
2021/08/17 02:12:24;;;;;;;1999.90;999.90;;;;;;;8.55;54.38;100648.22;5068447;27;98656;-73
2021/08/17 02:14:52;;;;;;;1999.90;999.90;;;;;;;8.52;53.86;100618.09;5070001;27;96959;-75
2021/08/17 02:17:19;;;;;;;1999.90;999.90;;;;;;;8.51;54.04;100625.16;5069973;27;97547;-75
2021/08/17 02:19:49;;;;;;;1999.90;999.90;;;;;;;8.49;54.19;100624.22;5060688;27;98172;-74
2021/08/17 02:22:16;;;;;;;1999.90;999.90;;;;;;;8.46;54.22;100620.56;5069586;27;96868;-74
2021/08/17 02:24:44;;;;;;;1999.90;999.90;;;;;;;8.79;53.95;100606.44;5065473;27;97050;-74
2021/08/17 02:27:12;;;;;;;1999.90;999.90;;;;;;;8.61;54.58;100620.97;5068334;27;97482;-74
2021/08/17 02:29:39;;;;;;;1999.90;999.90;;;;;;;8.57;54.91;100613.81;5067956;27;98849;-73
2021/08/17 02:32:08;;;;;;;1999.90;999.90;;;;;;;8.50;54.87;100620.69;5068201;27;97400;-74
2021/08/17 02:34:35;;;;;;;1999.90;999.90;;;;;;;8.45;55.08;100614.34;5046862;27;96813;-74
2021/08/17 02:37:05;;;;;;;1999.90;999.90;;;;;;;8.43;54.76;100616.06;5065477;27;99026;-73
2021/08/17 02:39:32;;;;;;;1999.90;999.90;;;;;;;8.37;55.10;100621.19;5068619;27;97316;-74
2021/08/17 02:42:00;;;;;;;1999.90;999.90;;;;;;;8.35;55.55;100624.66;5069369;27;97645;-73
2021/08/17 02:44:28;;;;;;;1999.90;999.90;;;;;;;8.30;55.54;100618.31;5067225;27;96810;-75
2021/08/17 02:46:55;;;;;;;1999.90;999.90;;;;;;;8.32;55.36;100621.91;5068652;27;97708;-74
2021/08/17 02:49:23;;;;;;;1999.90;999.90;;;;;;;8.31;55.33;100609.53;5068774;27;97578;-74
2021/08/17 02:51:51;;;;;;;1999.90;999.90;;;;;;;8.27;55.59;100619.16;5067477;27;98054;-74
2021/08/17 02:54:20;;;;;;;1999.90;999.90;;;;;;;8.29;55.30;100609.50;5068301;27;97172;-74
2021/08/17 02:56:48;;;;;;;1999.90;999.90;;;;;;;8.31;55.27;100615.72;5067491;27;97634;-74
2021/08/17 02:59:15;;;;;;;1999.90;999.90;;;;;;;8.27;55.81;100610.28;5063850;27;99096;-74
2021/08/17 03:01:43;;;;;;;1999.90;999.90;;;;;;;8.29;55.84;100611.25;5067638;27;97342;-75
2021/08/17 03:04:11;;;;;;;1999.90;999.90;;;;;;;8.32;55.50;100616.59;5068573;27;97258;-74
2021/08/17 03:06:39;;;;;;;1999.90;999.90;;;;;;;8.33;55.53;100613.13;5063294;27;97724;-74
2021/08/17 03:09:07;;;;;;;1999.90;999.90;;;;;;;8.32;55.55;100617.53;5064739;27;97531;-74
2021/08/17 03:11:36;;;;;;;1999.90;999.90;;;;;;;8.30;55.97;100627.19;5066603;27;96876;-74
2021/08/17 03:14:04;;;;;;;1999.90;999.90;;;;;;;8.33;55.73;100614.00;5067383;27;97504;-74
2021/08/17 03:16:32;;;;;;;1999.90;999.90;;;;;;;8.32;55.81;100645.78;5060439;27;98913;-74
2021/08/17 03:19:00;;;;;;;1999.90;999.90;;;;;;;8.35;55.95;100627.31;5068039;27;97910;-74
2021/08/17 03:21:28;;;;;;;1999.90;999.90;;;;;;;8.33;56.04;100632.56;5063073;27;97255;-74
2021/08/17 03:23:55;;;;;;;1999.90;999.90;;;;;;;8.35;55.85;100624.66;5066021;27;98099;-74
2021/08/17 03:26:23;;;;;;;1999.90;999.90;;;;;;;8.36;56.05;100621.16;5064140;27;98502;-74
2021/08/17 03:28:52;;;;;;;1999.90;999.90;;;;;;;8.37;55.89;100650.34;5065404;27;99767;-74
2021/08/17 03:31:20;;;;;;;1999.90;999.90;;;;;;;8.34;56.26;100629.06;5067727;27;97149;-74
2021/08/17 03:33:48;;;;;;;1999.90;999.90;;;;;;;8.35;56.04;100627.31;5066284;27;97881;-74
2021/08/17 03:36:16;;;;;;;1999.90;999.90;;;;;;;8.38;55.80;100627.41;5049309;27;99450;-74
2021/08/17 03:38:43;;;;;;;1999.90;999.90;;;;;;;8.37;56.11;100622.97;5043233;27;100691;-75
2021/08/17 03:41:11;;;;;;;1999.90;999.90;;;;;;;8.72;55.74;100646.03;5063317;27;97200;-73
2021/08/17 03:43:39;;;;;;;1999.90;999.90;;;;;;;8.58;56.64;100634.16;5067294;27;96930;-72
2021/08/17 03:46:08;;;;;;;1999.90;999.90;;;;;;;8.56;56.81;100644.75;5066987;27;99377;-73
2021/08/17 03:48:36;;;;;;;1999.90;999.90;;;;;;;8.55;56.63;100653.53;5054658;27;97747;-72
2021/08/17 03:51:04;;;;;;;1999.90;999.90;;;;;;;8.88;55.96;100645.56;5065191;27;97321;-73
2021/08/17 03:53:34;;;;;;;1999.90;999.90;;;;;;;8.67;56.90;100645.03;5068165;27;97062;-73
2021/08/17 03:56:02;;;;;;;1999.90;999.90;;;;;;;8.98;56.30;100640.56;5064953;27;99623;-75
2021/08/17 03:58:29;;;;;;;1999.90;999.90;;;;;;;8.76;57.41;100658.53;5065986;27;97560;-72
2021/08/17 04:00:57;;;;;;;1999.90;999.90;;;;;;;9.07;56.51;100658.47;5062606;27;96904;-73
2021/08/17 04:03:26;;;;;;;1999.90;999.90;;;;;;;8.81;57.25;100647.19;5048754;27;97034;-73
2021/08/17 04:05:54;;;;;;;1999.90;999.90;;;;;;;8.74;57.26;100647.88;5052160;27;99863;-78
2021/08/17 04:08:22;;;;;;;1999.90;999.90;;;;;;;8.74;57.26;100661.16;5063235;27;100741;-76
2021/08/17 04:10:51;;;;;;;1999.90;999.90;;;;;;;8.68;57.42;100675.97;5066890;27;96885;-75
2021/08/17 04:13:19;;;;;;;1999.90;999.90;;;;;;;8.63;57.43;100667.00;5066081;27;96961;-77
2021/08/17 04:15:46;;;;;;;1999.90;999.90;;;;;;;8.95;56.82;100671.44;5068479;27;98681;-77
2021/08/17 04:18:14;;;;;;;1999.90;999.90;;;;;;;9.13;57.08;100696.66;5066973;27;99595;-74
2021/08/17 04:20:43;;;;;;;1999.90;999.90;;;;;;;9.26;56.96;100668.69;5068018;27;97599;-76
2021/08/17 04:23:11;;;;;;;1999.90;999.90;;;;;;;8.95;57.89;100682.91;5083771;27;97056;-78
2021/08/17 04:25:39;;;;;;;1999.90;999.90;;;;;;;9.25;57.04;100666.88;5056604;27;98623;-78
2021/08/17 04:28:06;;;;;;;1999.90;999.90;;;;;;;9.38;57.03;100684.91;5060469;27;99215;-75
2021/08/17 04:30:34;;;;;;;1999.90;999.90;;;;;;;9.07;58.05;100687.66;5073350;27;97596;-77
2021/08/17 04:33:02;;;;;;;1999.90;999.90;;;;;;;8.94;58.03;100691.75;5065225;27;96983;-77
2021/08/17 04:35:29;;;;;;;1999.90;999.90;;;;;;;8.89;57.97;100692.50;5067230;27;97202;-77
2021/08/17 04:37:59;;;;;;;1999.90;999.90;;;;;;;9.19;57.02;100698.56;5042674;27;98073;-77
2021/08/17 04:40:27;;;;;;;1999.90;999.90;;;;;;;8.92;58.07;100705.81;5067907;27;96731;-76
2021/08/17 04:42:54;;;;;;;1999.90;999.90;;;;;;;8.85;58.12;100693.25;5065430;27;97780;-77
2021/08/17 04:45:22;;;;;;;1999.90;999.90;;;;;;;8.80;58.07;100694.91;5066264;27;99249;-77
2021/08/17 04:47:52;;;;;;;1999.90;999.90;;;;;;;8.76;58.16;100703.63;5067177;27;97525;-76
2021/08/17 04:50:21;;;;;;;1999.90;999.90;;;;;;;8.75;58.05;100715.09;5065310;27;98602;-76
2021/08/17 04:52:49;;;;;;;1999.90;999.90;;;;;;;8.73;57.70;100691.16;5066194;27;96985;-76
2021/08/17 04:55:19;;;;;;;1999.90;999.90;;;;;;;9.05;57.03;100692.94;5061545;27;99300;-76
2021/08/17 04:57:51;;;;;;;1999.90;999.90;;;;;;;9.17;57.88;100695.88;5062967;27;97589;-76
2021/08/17 05:00:21;;;;;;;1999.90;999.90;;;;;;;8.97;57.86;100707.75;5039258;27;97358;-75
2021/08/17 05:02:50;;;;;;;1999.90;999.90;;;;;;;8.92;57.79;100701.44;5062642;27;97196;-75
2021/08/17 05:05:21;;;;;;;1999.90;999.90;;;;;;;8.88;57.88;100712.81;5063431;27;96839;-77
2021/08/17 05:07:51;;;;;;;1999.90;999.90;;;;;;;8.88;57.46;100706.59;5045058;27;100445;-76
2021/08/17 05:10:22;;;;;;;1999.90;999.90;;;;;;;8.86;57.53;100705.69;5065680;27;97051;-77
2021/08/17 05:12:50;;;;;;;1999.90;999.90;;;;;;;8.86;57.47;100722.47;5067714;27;97492;-77
2021/08/17 05:15:18;;;;;;;1999.90;999.90;;;;;;;8.88;57.22;100723.41;5068657;27;98004;-77
2021/08/17 05:17:46;;;;;;;1999.90;999.90;;;;;;;8.90;57.06;100736.72;5069726;27;97725;-77
2021/08/17 05:20:15;;;;;;;1999.90;999.90;;;;;;;9.22;56.32;100719.91;5068075;27;97305;-77
2021/08/17 05:22:44;;;;;;;1999.90;999.90;;;;;;;9.40;56.03;100723.03;5069052;27;96966;-76
2021/08/17 05:25:13;;;;;;;1999.90;999.90;;;;;;;9.53;55.74;100735.78;5067714;27;97596;-77
2021/08/17 05:27:42;;;;;;;1999.90;999.90;;;;;;;9.28;56.41;100754.56;5070944;27;97726;-77
2021/08/17 05:30:10;;;;;;;1999.90;999.90;;;;;;;9.19;56.57;100747.28;5048473;27;96866;-77
2021/08/17 05:32:38;;;;;;;1999.90;999.90;;;;;;;9.08;72.17;100731.91;5069804;27;97036;-77
2021/08/17 05:35:07;;;;;;;1999.90;999.90;;;;;;;9.07;57.09;100744.31;5051189;27;100233;-77
2021/08/17 05:37:35;;;;;;;1999.90;999.90;;;;;;;9.04;56.88;100749.50;5051199;27;100773;-77
2021/08/17 05:40:04;;;;;;;1999.90;999.90;;;;;;;9.00;56.85;100750.31;5066015;27;98107;-77
2021/08/17 05:42:32;;;;;;;1999.90;999.90;;;;;;;8.97;56.95;100746.69;5070257;27;98346;-77
2021/08/17 05:45:01;;;;;;;1999.90;999.90;;;;;;;8.93;56.94;100780.16;5064662;27;99257;-77
2021/08/17 05:47:31;;;;;;;1999.90;999.90;;;;;;;8.90;57.06;100752.66;5069094;27;99685;-78
2021/08/17 05:49:59;;;;;;;1999.90;999.90;;;;;;;8.89;56.87;100754.44;5070752;27;96981;-77
2021/08/17 05:52:27;;;;;;;1999.90;999.90;;;;;;;8.87;56.84;100769.41;5072406;27;97401;-77
2021/08/17 05:54:54;;;;;;;1999.90;999.90;;;;;;;8.84;56.62;100757.81;5070966;27;98794;-77
2021/08/17 05:57:22;;;;;;;1999.90;999.90;;;;;;;8.81;56.90;100776.28;5070792;27;98036;-77
2021/08/17 05:59:50;;;;;;;1999.90;999.90;;;;;;;8.82;56.68;100767.47;5069483;27;96943;-77
2021/08/17 06:02:19;;;;;;;1999.90;999.90;;;;;;;8.80;56.91;100779.81;5069433;27;97281;-77
2021/08/17 06:04:47;;;;;;;1999.90;999.90;;;;;;;8.81;56.77;100781.59;5067852;27;100613;-77
2021/08/17 06:07:17;;;;;;;1999.90;999.90;;;;;;;8.79;57.18;100796.56;5062095;27;99244;-78
2021/08/17 06:09:45;;;;;;;1999.90;999.90;;;;;;;8.81;56.62;100779.84;5047025;27;97373;-78
2021/08/17 06:12:12;;;;;;;1999.90;999.90;;;;;;;8.80;56.66;100788.66;5067950;27;97435;-78
2021/08/17 06:14:41;;;;;;;1999.90;999.90;;;;;;;8.84;56.63;100760.47;5067439;27;99698;-78
2021/08/17 06:17:09;;;;;;;1999.90;999.90;;;;;;;8.86;56.31;100772.91;5062770;27;99076;-78
2021/08/17 06:19:38;;;;;;;1999.90;999.90;;;;;;;8.86;56.55;100774.69;5069366;27;97746;-78
2021/08/17 06:22:06;;;;;;;1999.90;999.90;;;;;;;8.86;56.26;100769.38;5068714;27;97557;-78
2021/08/17 06:24:34;;;;;;;1999.90;999.90;;;;;;;8.86;56.34;100775.56;5067908;27;97902;-77
2021/08/17 06:27:02;;;;;;;1999.90;999.90;;;;;;;8.86;56.37;100782.63;5068471;27;98842;-77
2021/08/17 06:29:43;;;;;;;1999.90;999.90;;;;;;;8.89;55.90;100788.03;5064324;27;97361;-78
2021/08/17 06:32:10;;;;;;;1999.90;999.90;;;;;;;8.87;56.25;100792.38;5068377;27;98216;-80
2021/08/17 06:34:39;;;;;;;1999.90;999.90;;;;;;;8.88;56.19;100779.16;5072589;27;98737;-78
2021/08/17 06:37:07;;;;;;;1999.90;999.90;;;;;;;8.90;56.10;100789.81;5065691;27;98206;-78
2021/08/17 06:39:35;;;;;;;1999.90;999.90;;;;;;;8.92;55.86;100796.97;5067479;27;96789;-77
2021/08/17 06:42:03;;;;;;;1999.90;999.90;;;;;;;8.93;55.84;100801.41;5061624;27;97417;-77
2021/08/17 06:44:31;;;;;;;1999.90;999.90;;;;;;;8.91;55.95;100797.84;5066591;27;97883;-77
2021/08/17 06:46:59;;;;;;;1999.90;999.90;;;;;;;8.89;55.94;100804.84;5068285;27;97911;-77
2021/08/17 06:49:26;;;;;;;1999.90;999.90;;;;;;;8.91;55.77;100794.28;5067611;27;97186;-77
2021/08/17 06:51:55;;;;;;;1999.90;999.90;;;;;;;8.93;55.70;100817.31;5068670;27;96966;-77
2021/08/17 06:54:23;;;;;;;1999.90;999.90;;;;;;;8.95;55.63;100804.13;5069320;27;97663;-77
2021/08/17 06:56:51;;;;;;;1999.90;999.90;;;;;;;8.95;55.35;100810.31;5053926;27;100758;-77
2021/08/17 06:59:19;;;;;;;1999.90;999.90;;;;;;;8.98;55.43;100823.69;5073304;27;97166;-78
2021/08/17 07:01:46;;;;;;;1999.90;999.90;;;;;;;9.01;55.35;100826.41;5075092;27;96656;-78
2021/08/17 07:04:14;;;;;;;1999.90;999.90;;;;;;;9.01;55.29;100825.50;5074407;27;98720;-78
2021/08/17 07:06:42;;;;;;;1999.90;999.90;;;;;;;9.06;55.26;100837.19;5072737;27;97990;-78
2021/08/17 07:09:11;;;;;;;1999.90;999.90;;;;;;;9.04;55.15;100826.47;5076244;27;97317;-77
2021/08/17 07:11:39;;;;;;;1999.90;999.90;;;;;;;9.03;55.27;100824.69;5056251;27;98412;-77
2021/08/17 07:14:07;;;;;;;1999.90;999.90;;;;;;;9.05;55.25;100833.59;5073154;27;98934;-78
2021/08/17 07:16:36;;;;;;;1999.90;999.90;;;;;;;9.08;55.22;100830.13;5049168;27;101367;-78
2021/08/17 07:19:04;;;;;;;1999.90;999.90;;;;;;;9.09;55.01;100829.28;5063544;27;96880;-77
2021/08/17 07:21:32;;;;;;;1999.90;999.90;;;;;;;9.10;54.96;100824.00;5053967;27;96977;-78
2021/08/17 07:24:02;;;;;;;1999.90;999.90;;;;;;;9.13;54.95;100840.00;5070063;27;99719;-77
2021/08/17 07:26:31;;;;;;;1999.90;999.90;;;;;;;9.16;54.81;100842.78;5070174;27;99297;-77
2021/08/17 07:28:58;;;;;;;1999.90;999.90;;;;;;;9.15;54.91;100843.63;5074551;27;96853;-77
2021/08/17 07:31:36;;;;;;;1999.90;999.90;;;;;;;9.23;54.83;100833.22;5072421;27;97545;-81
2021/08/17 07:34:05;;;;;;;1999.90;999.90;;;;;;;9.27;54.52;100835.09;5050725;27;100314;-78
2021/08/17 07:36:35;;;;;;;1999.90;999.90;;;;;;;9.32;54.43;100849.38;5053112;27;98126;-77
2021/08/17 07:39:03;;;;;;;1999.90;999.90;;;;;;;9.37;54.39;100837.13;5074304;27;96874;-77
2021/08/17 07:41:33;;;;;;;1999.90;999.90;;;;;;;9.44;54.11;100833.81;5071532;27;97900;-77
2021/08/17 07:44:01;;;;;;;1999.90;999.90;;;;;;;9.49;54.03;100831.28;5073034;27;99610;-77
2021/08/17 07:46:29;;;;;;;1999.90;999.90;;;;;;;9.54;53.78;100835.84;5069509;27;98029;-77
2021/08/17 07:48:57;;;;;;;1999.90;999.90;;;;;;;9.57;53.88;100843.03;5072847;27;97397;-77
2021/08/17 07:51:25;;;;;;;1999.90;999.90;;;;;;;9.59;53.65;100865.22;5056764;27;96837;-76
2021/08/17 07:53:53;;;;;;;1999.90;999.90;;;;;;;9.63;53.52;100830.78;5076664;27;97400;-77
2021/08/17 07:56:21;;;;;;;1999.90;999.90;;;;;;;9.68;53.65;100831.78;5077856;27;97825;-77
2021/08/17 07:58:50;;;;;;;1999.90;999.90;;;;;;;9.73;53.50;100837.22;5076976;27;96987;-77
2021/08/17 08:01:18;;;;;;;1999.90;999.90;;;;;;;9.78;53.37;100849.78;5079923;27;97368;-77
2021/08/17 08:03:46;;;;;;;1999.90;999.90;;;;;;;9.83;53.04;100834.84;5078739;27;99652;-77
2021/08/17 08:06:16;;;;;;;1999.90;999.90;;;;;;;9.88;52.97;100856.22;5077432;27;97731;-77
2021/08/17 08:08:43;;;;;;;1999.90;999.90;;;;;;;9.93;52.80;100857.25;5079687;27;97404;-77
2021/08/17 08:11:11;;;;;;;1999.90;999.90;;;;;;;9.99;52.55;100860.06;5061030;27;97327;-77
2021/08/17 08:13:39;;;;;;;1999.90;999.90;;;;;;;10.29;51.82;100857.22;5067110;27;99714;-77
2021/08/17 08:16:08;;;;;;;1999.90;999.90;;;;;;;10.18;52.19;100849.91;5076700;27;99190;-77
2021/08/17 08:18:36;;;;;;;1999.90;999.90;;;;;;;10.18;52.14;100860.53;5076879;27;97095;-76
2021/08/17 08:21:04;;;;;;;1999.90;999.90;;;;;;;10.50;51.25;100881.69;5074291;27;97564;-77
2021/08/17 08:23:31;;;;;;;1999.90;999.90;;;;;;;10.29;51.73;100871.41;5070911;27;100370;-77
2021/08/17 08:25:59;;;;;;;1999.90;999.90;;;;;;;10.29;51.69;100882.06;5058812;27;98901;-77
2021/08/17 08:28:27;;;;;;;1999.90;999.90;;;;;;;10.34;51.92;100879.53;5078056;27;97021;-77
2021/08/17 08:30:55;;;;;;;1999.90;999.90;;;;;;;10.37;51.47;100883.16;5061257;27;96680;-77
2021/08/17 08:33:24;;;;;;;1999.90;999.90;;;;;;;10.37;51.38;100871.59;5075875;27;99662;-77
2021/08/17 08:35:52;;;;;;;1999.90;999.90;;;;;;;10.39;51.54;100886.75;5072514;27;97994;-77
2021/08/17 08:38:19;;;;;;;1999.90;999.90;;;;;;;10.40;51.49;100874.31;5076512;27;97102;-77
2021/08/17 08:40:50;;;;;;;1999.90;999.90;;;;;;;10.39;51.08;100904.47;5075376;27;96040;-77
2021/08/17 08:43:18;;;;;;;1999.90;999.90;;;;;;;10.45;51.34;100896.66;5070989;27;98722;-77
2021/08/17 08:45:47;;;;;;;1999.90;999.90;;;;;;;10.47;51.26;100885.19;5075402;27;97583;-77
2021/08/17 08:48:15;;;;;;;1999.90;999.90;;;;;;;10.48;51.23;100896.72;5074904;27;96870;-77
2021/08/17 08:50:45;;;;;;;1999.90;999.90;;;;;;;10.81;50.07;100878.84;5073623;27;97801;-77
2021/08/17 08:53:14;;;;;;;1999.90;999.90;;;;;;;10.97;49.45;100879.22;5049318;27;100499;-77
2021/08/17 08:55:42;;;;;;;1999.90;999.90;;;;;;;10.85;49.95;100878.06;5075677;27;98286;-77
2021/08/17 08:58:09;;;;;;;1999.90;999.90;;;;;;;10.83;49.80;100870.03;5076525;27;96817;-77
2021/08/17 09:00:37;;;;;;;1999.90;999.90;;;;;;;10.81;49.95;100876.19;5074916;27;97479;-77
2021/08/17 09:03:05;;;;;;;1999.90;999.90;;;;;;;10.80;49.92;100877.94;5056048;27;99378;-77
2021/08/17 09:05:51;;;;;;;1999.90;999.90;;;;;;;10.74;48.84;100876.94;5071952;27;97990;-77
2021/08/17 09:08:22;;;;;;;1999.90;999.90;;;;;;;10.78;49.75;100873.44;5072317;27;97161;-77
2021/08/17 09:10:49;;;;;;;1999.90;999.90;;;;;;;10.79;49.91;100869.94;5064045;27;98018;-77
2021/08/17 09:13:24;;;;;;;1999.90;999.90;;;;;;;10.77;48.70;100877.00;5071968;27;97621;-77
2021/08/17 09:15:52;;;;;;;1999.90;999.90;;;;;;;10.82;49.90;100870.91;5071767;27;99431;-77
2021/08/17 09:18:20;;;;;;;1999.90;999.90;;;;;;;10.85;49.57;100873.63;5071636;27;96813;-77
2021/08/17 09:20:48;;;;;;;1999.90;999.90;;;;;;;10.90;49.65;100887.91;5075322;27;96864;-77
2021/08/17 09:23:23;;;;;;;1999.90;999.90;;;;;;;10.88;48.35;100870.13;5074083;27;99428;-77
2021/08/17 09:25:51;;;;;;;1999.90;999.90;;;;;;;10.94;49.35;100867.59;5065250;27;98911;-77
2021/08/17 09:28:31;;;;;;;1999.90;999.90;;;;;;;10.96;47.82;100860.53;5073599;27;97303;-77
2021/08/17 09:31:00;;;;;;;1999.90;999.90;;;;;;;11.03;49.01;100854.50;5074360;27;97251;-77
2021/08/17 09:33:38;;;;;;;1999.90;999.90;;;;;;;11.06;48.29;100870.50;5070450;27;99762;-77
2021/08/17 09:36:06;;;;;;;1999.90;999.90;;;;;;;11.11;48.90;100852.84;5053941;27;99582;-77
2021/08/17 09:38:36;;;;;;;1999.90;999.90;;;;;;;11.09;48.35;100862.56;5073008;27;96828;-77
2021/08/17 09:41:18;;;;;;;1999.90;999.90;;;;;;;11.08;47.97;100871.44;5058609;27;96983;-77
2021/08/17 09:44:00;;;;;;;1999.90;999.90;;;;;;;11.04;47.20;100880.22;5074486;27;98724;-77
2021/08/17 09:46:30;;;;;;;1999.90;999.90;;;;;;;11.11;48.67;100863.50;5067773;27;98068;-77
2021/08/17 09:49:17;;;;;;;1999.90;999.90;;;;;;;11.05;46.38;100876.69;5056437;27;97317;-77
2021/08/17 09:51:45;;;;;;;1999.90;999.90;;;;;;;11.11;48.45;100895.47;5058192;27;97314;-76
2021/08/17 09:54:15;;;;;;;1999.90;999.90;;;;;;;11.18;48.44;100862.75;5052675;27;100939;-77
2021/08/17 09:56:44;;;;;;;1999.90;999.90;;;;;;;11.26;48.01;100860.25;5074026;27;99262;-77
2021/08/17 09:59:18;;;;;;;1999.90;999.90;;;;;;;11.30;46.18;100899.41;5061014;27;97270;-76
2021/08/17 10:01:46;;;;;;;1999.90;999.90;;;;;;;11.39;47.80;100868.56;5078440;27;98050;-76
2021/08/17 10:04:15;;;;;;;1999.90;999.90;;;;;;;11.45;47.83;100873.97;5079306;27;99589;-77
2021/08/17 10:06:43;;;;;;;1999.90;999.90;;;;;;;11.51;47.61;100858.13;5080621;27;98046;-77
2021/08/17 10:09:13;;;;;;;1999.90;999.90;;;;;;;11.54;47.58;100854.63;5075436;27;97648;-76
2021/08/17 10:11:42;;;;;;;1999.90;999.90;;;;;;;11.53;47.35;100861.72;5059502;27;97961;-77
2021/08/17 10:14:11;;;;;;;1999.90;999.90;;;;;;;11.53;47.31;100860.81;5061309;27;100013;-76
2021/08/17 10:16:41;;;;;;;1999.90;999.90;;;;;;;11.52;47.31;100854.59;5074265;27;99762;-77
2021/08/17 10:19:10;;;;;;;1999.90;999.90;;;;;;;11.55;47.41;100857.31;5055725;27;97373;-77
2021/08/17 10:21:40;;;;;;;1999.90;999.90;;;;;;;11.58;46.93;100856.47;5056851;27;97323;-76
2021/08/17 10:24:31;;;;;;;1999.90;999.90;;;;;;;11.58;44.65;100854.69;5080041;27;97377;-76
2021/08/17 10:27:23;;;;;;;1999.90;999.90;;;;;;;11.61;44.38;100877.84;5059775;27;97080;-76
2021/08/17 10:29:58;;;;;;;1999.90;999.90;;;;;;;11.69;46.07;100876.22;5052827;27;96928;-77
2021/08/17 10:32:48;;;;;;;1999.90;999.90;;;;;;;11.69;44.31;100874.44;5078161;27;96890;-77
2021/08/17 10:35:52;;;;;;;1999.90;999.90;;;;;;;11.65;43.40;100883.25;5062980;27;97779;-77
2021/08/17 10:38:53;;;;;;;1999.90;999.90;;;;;;;11.73;43.57;100862.06;5062364;27;97876;-77
2021/08/17 10:41:27;;;;;;;1999.90;999.90;;;;;;;11.86;46.13;100859.66;5061690;27;97057;-77
2021/08/17 10:44:21;;;;;;;1999.90;999.90;;;;;;;11.92;44.70;100859.75;5061263;27;97421;-77
2021/08/17 10:47:03;;;;;;;1999.90;999.90;;;;;;;12.00;46.06;100868.78;5060724;27;98419;-77
2021/08/17 10:49:34;;;;;;;1999.90;999.90;;;;;;;12.03;45.77;100879.50;5063025;27;97361;-77
2021/08/17 10:52:05;;;;;;;1999.90;999.90;;;;;;;12.03;44.84;100883.94;5080996;27;96854;-76
2021/08/17 10:54:33;;;;;;;1999.90;999.90;;;;;;;12.06;45.84;100860.88;5062992;27;96827;-77
2021/08/17 10:57:19;;;;;;;1999.90;999.90;;;;;;;11.94;42.95;100873.13;5079959;27;97745;-77
2021/08/17 10:59:50;;;;;;;1999.90;999.90;;;;;;;11.98;45.40;100897.19;5078775;27;97217;-77
2021/08/17 11:02:21;;;;;;;1999.90;999.90;;;;;;;11.97;45.66;100875.81;5079252;27;97427;-77